createdAt,value
2018-03-22T00:01:53.243Z,6.67
2018-03-22T00:04:21.316Z,4.90
2018-03-22T00:06:49.358Z,7.63
2018-03-22T00:09:17.418Z,5.93
2018-03-22T00:11:45.483Z,5.27
2018-03-22T00:14:13.559Z,7.83
2018-03-22T00:16:41.610Z,5.50
2018-03-22T00:19:10.426Z,7.73
2018-03-22T00:21:38.493Z,6.87
2018-03-22T00:24:07.309Z,4.93
2018-03-22T00:26:36.142Z,6.17
2018-03-22T00:29:04.194Z,8.20
2018-03-22T00:31:33.029Z,6.60
2018-03-22T00:34:01.207Z,8.27
2018-03-22T00:36:29.270Z,9.00
2018-03-22T00:38:57.321Z,7.40
2018-03-22T00:41:25.440Z,6.47
2018-03-22T00:43:53.438Z,6.93
2018-03-22T00:46:21.480Z,10.07
2018-03-22T00:48:50.317Z,7.60
2018-03-22T00:51:18.377Z,5.67
2018-03-22T00:53:47.190Z,7.87
2018-03-22T00:56:16.024Z,7.73
2018-03-22T00:58:44.069Z,7.63
2018-03-22T01:01:12.879Z,5.57
2018-03-22T01:03:41.693Z,6.67
2018-03-22T01:06:09.763Z,6.77
2018-03-22T01:08:38.564Z,6.90
2018-03-22T01:11:07.372Z,6.47
2018-03-22T01:13:36.196Z,8.17
2018-03-22T01:16:04.237Z,8.20
2018-03-22T01:18:32.299Z,8.00
2018-03-22T01:21:00.644Z,6.60
2018-03-22T01:23:28.691Z,5.57
2018-03-22T01:25:56.749Z,5.77
2018-03-22T01:28:24.800Z,7.17
2018-03-22T01:30:52.866Z,8.57
2018-03-22T01:33:21.684Z,6.67
2018-03-22T01:35:49.740Z,6.77
2018-03-22T01:38:18.552Z,6.93
2018-03-22T01:40:47.364Z,8.47
2018-03-22T01:43:15.407Z,7.67
2018-03-22T01:45:43.470Z,9.80
2018-03-22T01:48:11.515Z,6.90
2018-03-22T01:50:39.568Z,7.83
2018-03-22T01:53:14.304Z,7.43
2018-03-22T01:55:42.357Z,8.27
2018-03-22T01:58:10.404Z,9.23
2018-03-22T02:00:39.230Z,8.67
2018-03-22T02:03:07.285Z,4.93
2018-03-22T02:05:36.109Z,8.07
2018-03-22T02:08:04.157Z,7.80
2018-03-22T02:10:32.217Z,7.40
2018-03-22T02:13:00.312Z,10.87
2018-03-22T02:15:28.388Z,7.37
2018-03-22T02:17:56.450Z,7.10
2018-03-22T02:20:24.492Z,6.87
2018-03-22T02:22:53.315Z,7.40
2018-03-22T02:25:21.408Z,7.33
2018-03-22T02:27:49.476Z,7.80
2018-03-22T02:30:17.524Z,9.50
2018-03-22T02:32:45.565Z,8.73
2018-03-22T02:35:13.626Z,11.40
2018-03-22T02:37:41.668Z,10.03
2018-03-22T02:40:09.732Z,11.37
2018-03-22T02:42:37.780Z,9.77
2018-03-22T02:45:06.605Z,8.60
2018-03-22T02:47:34.655Z,11.33
2018-03-22T02:50:03.484Z,8.80
2018-03-22T02:52:31.536Z,9.50
2018-03-22T02:54:59.585Z,9.37
2018-03-22T02:57:27.640Z,10.30
2018-03-22T02:59:55.808Z,12.00
2018-03-22T03:02:24.609Z,10.03
2018-03-22T03:04:52.671Z,11.30
2018-03-22T03:07:20.711Z,9.03
2018-03-22T03:09:48.772Z,10.03
2018-03-22T03:12:16.837Z,13.53
2018-03-22T03:14:45.644Z,11.13
2018-03-22T03:17:14.468Z,12.57
2018-03-22T03:19:42.530Z,16.70
2018-03-22T03:22:11.355Z,14.60
2018-03-22T03:24:39.407Z,11.20
2018-03-22T03:27:08.237Z,13.03
2018-03-22T03:29:36.280Z,12.30
2018-03-22T03:32:04.323Z,17.47
2018-03-22T03:34:32.512Z,10.97
2018-03-22T03:37:00.558Z,11.87
2018-03-22T03:39:29.360Z,10.40
2018-03-22T03:41:57.417Z,12.37
2018-03-22T03:44:26.240Z,13.10
2018-03-22T03:46:55.051Z,10.73
2018-03-22T03:49:23.146Z,11.33
2018-03-22T03:51:51.229Z,9.70
2018-03-22T03:54:19.272Z,9.83
2018-03-22T03:56:47.312Z,9.17
2018-03-22T03:59:15.479Z,10.63
2018-03-22T04:01:43.523Z,10.67
2018-03-22T04:04:11.559Z,9.00
2018-03-22T04:06:39.616Z,13.90
2018-03-22T04:09:08.420Z,12.53
2018-03-22T04:11:37.237Z,11.80
2018-03-22T04:14:05.298Z,12.53
2018-03-22T04:16:33.337Z,12.37
2018-03-22T04:19:01.373Z,12.53
2018-03-22T04:21:30.167Z,12.93
2018-03-22T04:23:58.988Z,13.67
2018-03-22T04:26:27.081Z,13.73
2018-03-22T04:28:55.119Z,15.13
2018-03-22T04:31:23.152Z,11.60
2018-03-22T04:33:51.202Z,14.33
2018-03-22T04:36:20.028Z,13.20
2018-03-22T04:38:48.122Z,14.27
2018-03-22T04:41:16.155Z,13.47
2018-03-22T04:43:44.207Z,14.70
2018-03-22T04:46:12.244Z,13.43
2018-03-22T04:48:41.060Z,13.43
2018-03-22T04:51:09.159Z,13.57
2018-03-22T04:53:37.199Z,12.53
2018-03-22T04:56:05.233Z,14.17
2018-03-22T04:58:33.287Z,15.77
2018-03-22T05:01:02.083Z,16.57
2018-03-22T05:03:30.915Z,12.93
2018-03-22T05:05:58.955Z,15.13
2018-03-22T05:08:27.004Z,12.43
2018-03-22T05:10:55.065Z,13.43
2018-03-22T05:13:23.108Z,13.33
2018-03-22T05:15:51.139Z,15.37
2018-03-22T05:18:19.208Z,13.50
2018-03-22T05:20:47.309Z,12.83
2018-03-22T05:23:15.347Z,17.30
2018-03-22T05:25:43.400Z,12.60
2018-03-22T05:28:11.435Z,14.37
2018-03-22T05:30:40.272Z,12.00
2018-03-22T05:33:08.311Z,11.03
2018-03-22T05:35:37.115Z,10.50
2018-03-22T05:38:05.925Z,9.37
2018-03-22T05:40:34.736Z,8.40
2018-03-22T05:43:02.862Z,10.47
2018-03-22T05:45:30.872Z,9.13
2018-03-22T05:47:58.912Z,10.50
2018-03-22T05:50:26.947Z,8.23
2018-03-22T05:52:56.595Z,9.10
2018-03-22T05:55:24.644Z,8.60
2018-03-22T05:57:52.680Z,9.30
2018-03-22T06:00:20.768Z,16.77
2018-03-22T06:02:48.819Z,9.40
2018-03-22T06:05:17.632Z,11.47
2018-03-22T06:07:45.670Z,12.20
2018-03-22T06:10:13.732Z,14.17
2018-03-22T06:12:41.772Z,16.13
2018-03-22T06:15:10.580Z,13.57
2018-03-22T06:17:39.395Z,13.23
2018-03-22T06:20:07.432Z,12.20
2018-03-22T06:22:36.252Z,15.47
2018-03-22T06:25:04.296Z,18.57
2018-03-22T06:27:32.343Z,11.30
2018-03-22T06:30:00.396Z,12.30
2018-03-22T06:32:29.203Z,12.73
2018-03-22T06:34:57.261Z,18.37
2018-03-22T06:37:25.299Z,12.47
2018-03-22T06:39:53.354Z,13.33
2018-03-22T06:42:21.388Z,13.43
2018-03-22T06:44:49.445Z,15.50
2018-03-22T06:47:18.244Z,15.97
2018-03-22T06:49:47.071Z,14.83
2018-03-22T06:52:15.119Z,14.47
2018-03-22T06:54:43.189Z,15.80
2018-03-22T06:57:11.220Z,15.63
2018-03-22T06:59:39.272Z,16.57
2018-03-22T07:02:07.647Z,12.77
2018-03-22T07:04:35.700Z,15.03
2018-03-22T07:07:03.760Z,12.93
2018-03-22T07:09:31.800Z,30.03
2018-03-22T07:11:59.858Z,12.10
2018-03-22T07:14:27.903Z,13.33
2018-03-22T07:16:56.761Z,13.70
2018-03-22T07:19:25.524Z,11.20
2018-03-22T07:21:53.584Z,13.80
2018-03-22T07:24:22.409Z,12.57
2018-03-22T07:26:50.440Z,9.03
2018-03-22T07:29:18.484Z,11.43
2018-03-22T07:31:46.535Z,12.03
2018-03-22T07:34:15.335Z,10.37
2018-03-22T07:36:44.156Z,12.87
2018-03-22T07:39:12.191Z,11.90
2018-03-22T07:41:40.260Z,10.00
2018-03-22T07:44:12.120Z,12.23
2018-03-22T07:46:40.180Z,11.90
2018-03-22T07:49:08.217Z,10.13
2018-03-22T07:51:36.252Z,12.33
2018-03-22T07:54:04.304Z,13.67
2018-03-22T07:56:32.350Z,11.00
2018-03-22T07:59:00.669Z,12.77
2018-03-22T08:01:28.646Z,17.57
2018-03-22T08:03:56.704Z,10.30
2018-03-22T08:06:24.753Z,14.00
2018-03-22T08:08:53.576Z,12.27
2018-03-22T08:11:21.621Z,11.97
2018-03-22T08:13:49.672Z,9.80
2018-03-22T08:16:17.704Z,11.77
2018-03-22T08:18:46.540Z,14.50
2018-03-22T08:21:15.340Z,12.23
2018-03-22T08:23:43.381Z,15.47
2018-03-22T08:26:12.206Z,13.47
2018-03-22T08:28:40.239Z,10.33
2018-03-22T08:31:08.296Z,10.17
2018-03-22T08:33:36.332Z,13.93
2018-03-22T08:36:05.131Z,16.20
2018-03-22T08:38:33.951Z,14.27
2018-03-22T08:41:02.007Z,13.03
2018-03-22T08:43:30.071Z,13.67
2018-03-22T08:45:58.112Z,12.90
2018-03-22T08:48:26.192Z,12.40
2018-03-22T08:50:54.233Z,17.33
2018-03-22T08:53:22.282Z,14.97
2018-03-22T08:55:50.315Z,12.87
2018-03-22T08:58:18.441Z,16.63
2018-03-22T09:00:46.499Z,16.97
2018-03-22T09:03:15.304Z,15.23
2018-03-22T09:05:44.103Z,16.23
2018-03-22T09:08:13.195Z,15.50
2018-03-22T09:10:41.238Z,23.67
2018-03-22T09:13:09.315Z,18.00
2018-03-22T09:15:38.516Z,18.57
2018-03-22T09:18:06.780Z,19.73
2018-03-22T09:20:34.919Z,17.73
2018-03-22T09:23:02.948Z,14.53
2018-03-22T09:25:31.770Z,18.07
2018-03-22T09:27:59.811Z,15.47
2018-03-22T09:30:27.860Z,14.80
2018-03-22T09:32:55.902Z,16.30
2018-03-22T09:35:24.722Z,18.43
2018-03-22T09:37:52.756Z,14.53
2018-03-22T09:40:20.811Z,17.77
2018-03-22T09:42:48.844Z,23.93
2018-03-22T09:45:16.885Z,15.83
2018-03-22T09:47:45.880Z,18.80
2018-03-22T09:50:13.911Z,14.47
2018-03-22T09:52:41.967Z,16.90
2018-03-22T09:55:10.120Z,20.47
2018-03-22T09:57:38.176Z,14.33
2018-03-22T10:00:06.215Z,20.33
2018-03-22T10:02:34.268Z,17.40
2018-03-22T10:05:02.305Z,18.80
2018-03-22T10:07:30.367Z,21.13
2018-03-22T10:09:58.436Z,23.63
2018-03-22T10:12:26.475Z,24.73
2018-03-22T10:14:54.533Z,21.13
2018-03-22T10:17:22.571Z,25.17
2018-03-22T10:19:51.384Z,21.23
2018-03-22T10:22:19.447Z,26.20
2018-03-22T10:24:47.559Z,26.43
2018-03-22T10:27:15.600Z,28.03
2018-03-22T10:29:43.688Z,24.80
2018-03-22T10:32:11.944Z,27.40
2018-03-22T10:34:39.995Z,25.60
2018-03-22T10:37:08.053Z,29.17
2018-03-22T10:39:36.092Z,24.73
2018-03-22T10:42:04.128Z,30.53
2018-03-22T10:44:32.948Z,23.70
2018-03-22T10:47:00.987Z,26.00
2018-03-22T10:49:29.056Z,28.50
2018-03-22T10:51:57.097Z,24.93
2018-03-22T10:54:25.905Z,25.83
2018-03-22T10:56:53.963Z,26.20
2018-03-22T10:59:22.784Z,27.13
2018-03-22T11:01:57.300Z,27.30
2018-03-22T11:04:25.356Z,29.83
2018-03-22T11:06:53.400Z,25.70
2018-03-22T11:09:21.464Z,31.20
2018-03-22T11:11:50.268Z,29.63
2018-03-22T11:14:19.100Z,32.20
2018-03-22T11:16:47.124Z,30.37
2018-03-22T11:19:15.187Z,32.83
2018-03-22T11:21:43.232Z,31.00
2018-03-22T11:24:11.651Z,30.07
2018-03-22T11:26:39.684Z,31.63
2018-03-22T11:29:08.512Z,26.93
2018-03-22T11:31:36.580Z,31.60
2018-03-22T11:34:05.388Z,34.27
2018-03-22T11:36:34.205Z,29.27
2018-03-22T11:39:02.256Z,35.70
2018-03-22T11:41:30.297Z,41.07
2018-03-22T11:43:58.347Z,33.20
2018-03-22T11:46:27.172Z,33.30
2018-03-22T11:48:55.207Z,34.23
2018-03-22T11:51:23.332Z,40.87
2018-03-22T11:53:51.404Z,38.10
2018-03-22T11:56:20.203Z,37.47
2018-03-22T11:58:49.027Z,37.97
2018-03-22T12:01:17.080Z,42.03
2018-03-22T12:03:45.104Z,39.23
2018-03-22T12:06:13.156Z,38.23
2018-03-22T12:08:41.961Z,41.93
2018-03-22T12:11:10.155Z,39.47
2018-03-22T12:13:38.196Z,35.13
2018-03-22T12:16:06.256Z,43.20
2018-03-22T12:18:34.297Z,41.63
2018-03-22T12:21:03.116Z,44.63
2018-03-22T12:23:31.156Z,47.53
2018-03-22T12:25:59.209Z,45.03
2018-03-22T12:28:27.245Z,42.37
2018-03-22T12:30:56.168Z,39.57
2018-03-22T12:33:24.200Z,46.37
2018-03-22T12:35:52.340Z,48.83
2018-03-22T12:38:20.388Z,45.07
2018-03-22T12:40:48.450Z,47.83
2018-03-22T12:43:16.550Z,47.70
2018-03-22T12:45:44.578Z,48.40
2018-03-22T12:48:12.787Z,42.20
2018-03-22T12:50:40.831Z,48.07
2018-03-22T12:53:09.652Z,47.40
2018-03-22T12:55:37.689Z,43.77
2018-03-22T12:58:05.740Z,38.20
2018-03-22T13:00:33.791Z,41.73
2018-03-22T13:03:01.844Z,37.80
2018-03-22T13:05:29.879Z,38.70
2018-03-22T13:07:57.949Z,36.80
2018-03-22T13:10:25.984Z,36.57
2018-03-22T13:12:54.028Z,41.10
2018-03-22T13:15:22.079Z,41.13
2018-03-22T13:17:50.880Z,39.03
2018-03-22T13:20:19.700Z,38.77
2018-03-22T13:22:47.743Z,36.33
2018-03-22T13:25:15.797Z,39.93
2018-03-22T13:27:43.857Z,37.80
2018-03-22T13:30:12.096Z,37.23
2018-03-22T13:32:40.149Z,37.57
2018-03-22T13:35:08.184Z,38.37
2018-03-22T13:37:37.015Z,37.00
2018-03-22T13:40:05.050Z,39.97
2018-03-22T13:42:33.077Z,42.20
2018-03-22T13:45:01.139Z,43.20
2018-03-22T13:47:29.172Z,38.50
2018-03-22T13:49:57.220Z,44.87
2018-03-22T13:52:26.036Z,42.20
2018-03-22T13:54:54.080Z,44.33
2018-03-22T13:57:22.123Z,35.37
2018-03-22T13:59:50.164Z,38.00
2018-03-22T14:02:18.981Z,35.10
2018-03-22T14:04:47.074Z,37.20
2018-03-22T14:07:15.153Z,30.43
2018-03-22T14:09:43.240Z,34.40
2018-03-22T14:12:11.276Z,30.83
2018-03-22T14:14:39.308Z,35.53
2018-03-22T14:17:07.364Z,31.70
2018-03-22T14:19:35.400Z,34.43
2018-03-22T14:22:03.448Z,35.47
2018-03-22T14:24:32.265Z,30.57
2018-03-22T14:27:00.296Z,29.23
2018-03-22T14:29:28.357Z,24.03
2018-03-22T14:31:56.496Z,28.40
2018-03-22T14:34:25.331Z,25.87
2018-03-22T14:36:54.128Z,31.60
2018-03-22T14:39:22.155Z,25.63
2018-03-22T14:41:50.208Z,24.63
2018-03-22T14:44:18.241Z,28.37
2018-03-22T14:46:46.296Z,27.70
2018-03-22T14:49:14.334Z,29.80
2018-03-22T14:51:43.159Z,30.50
2018-03-22T14:54:11.188Z,29.47
2018-03-22T14:56:39.255Z,34.10
2018-03-22T14:59:07.288Z,25.90
2018-03-22T15:01:35.320Z,30.87
2018-03-22T15:04:03.372Z,43.07
2018-03-22T15:06:31.451Z,62.90
2018-03-22T15:08:59.501Z,34.67
2018-03-22T15:11:28.305Z,43.40
2018-03-22T15:13:57.148Z,36.33
2018-03-22T15:16:25.201Z,39.47
2018-03-22T15:18:54.005Z,41.40
2018-03-22T15:21:22.819Z,39.33
2018-03-22T15:23:50.847Z,33.87
2018-03-22T15:26:18.913Z,38.47
2018-03-22T15:28:46.980Z,36.90
2018-03-22T15:31:15.017Z,42.03
2018-03-22T15:33:43.068Z,32.33
2018-03-22T15:36:11.103Z,24.57
2018-03-22T15:38:39.919Z,25.83
2018-03-22T15:41:08.749Z,27.70
2018-03-22T15:43:36.804Z,27.83
2018-03-22T15:46:04.836Z,29.23
2018-03-22T15:48:32.873Z,32.37
2018-03-22T15:51:00.924Z,35.70
2018-03-22T15:53:28.972Z,34.60
2018-03-22T15:55:57.016Z,38.33
2018-03-22T15:58:25.828Z,37.77
2018-03-22T16:00:53.888Z,33.23
2018-03-22T16:03:22.688Z,35.27
2018-03-22T16:05:50.724Z,36.13
2018-03-22T16:08:18.773Z,34.27
2018-03-22T16:10:47.588Z,35.40
2018-03-22T16:13:15.645Z,35.63
2018-03-22T16:15:44.449Z,34.23
2018-03-22T16:18:13.259Z,34.80
2018-03-22T16:20:42.078Z,37.03
2018-03-22T16:23:10.165Z,37.43
2018-03-22T16:25:38.216Z,35.57
2018-03-22T16:28:07.073Z,37.13
2018-03-22T16:30:35.107Z,36.37
2018-03-22T16:33:03.908Z,39.90
2018-03-22T16:35:32.728Z,36.77
2018-03-22T16:38:01.540Z,32.67
2018-03-22T16:40:29.576Z,34.03
2018-03-22T16:42:58.404Z,36.43
2018-03-22T16:45:27.216Z,35.53
2018-03-22T16:47:56.016Z,35.40
2018-03-22T16:50:24.854Z,36.30
2018-03-22T16:52:52.918Z,37.17
2018-03-22T16:55:20.964Z,37.23
2018-03-22T16:57:49.024Z,34.57
2018-03-22T17:00:17.288Z,39.33
2018-03-22T17:02:45.346Z,35.80
2018-03-22T17:05:14.156Z,35.57
2018-03-22T17:07:42.204Z,37.93
2018-03-22T17:10:11.056Z,36.77
2018-03-22T17:12:39.856Z,36.33
2018-03-22T17:15:07.888Z,35.30
2018-03-22T17:17:35.969Z,36.10
2018-03-22T17:20:04.005Z,38.00
2018-03-22T17:22:32.066Z,35.70
2018-03-22T17:25:00.867Z,36.57
2018-03-22T17:27:29.672Z,30.97
2018-03-22T17:29:58.479Z,33.07
2018-03-22T17:32:27.285Z,33.07
2018-03-22T17:34:56.099Z,34.73
2018-03-22T17:37:24.132Z,33.57
2018-03-22T17:39:52.180Z,37.40
2018-03-22T17:42:20.220Z,38.67
2018-03-22T17:44:49.045Z,35.10
2018-03-22T17:47:17.857Z,35.27
2018-03-22T17:49:45.903Z,40.80
2018-03-22T17:52:13.939Z,33.67
2018-03-22T17:54:41.999Z,32.23
2018-03-22T17:57:10.831Z,33.30
2018-03-22T17:59:38.894Z,31.57
2018-03-22T18:02:07.700Z,32.67
2018-03-22T18:04:35.737Z,34.87
2018-03-22T18:07:03.792Z,37.23
2018-03-22T18:09:31.842Z,35.03
2018-03-22T18:11:59.876Z,35.27
2018-03-22T18:14:27.954Z,37.93
2018-03-22T18:16:56.001Z,33.47
2018-03-22T18:19:24.034Z,36.53
2018-03-22T18:21:52.080Z,33.33
2018-03-22T18:24:20.116Z,35.93
2018-03-22T18:26:48.176Z,33.47
2018-03-22T18:29:16.218Z,34.40
2018-03-22T18:31:44.268Z,33.07
2018-03-22T18:34:12.304Z,34.43
2018-03-22T18:36:40.352Z,35.37
2018-03-22T18:39:09.168Z,33.53
2018-03-22T18:41:37.964Z,31.97
2018-03-22T18:44:06.780Z,31.37
2018-03-22T18:46:34.818Z,31.20
2018-03-22T18:49:02.872Z,29.73
2018-03-22T18:51:31.002Z,27.17
2018-03-22T18:53:59.052Z,25.87
2018-03-22T18:56:27.084Z,27.60
2018-03-22T18:58:55.900Z,28.97
2018-03-22T19:01:23.956Z,29.23
2018-03-22T19:03:51.991Z,29.37
2018-03-22T19:06:20.056Z,29.40
2018-03-22T19:08:48.097Z,27.83
2018-03-22T19:11:16.136Z,27.07
2018-03-22T19:13:44.233Z,29.90
2018-03-22T19:16:12.241Z,31.10
2018-03-22T19:18:40.293Z,30.33
2018-03-22T19:21:08.347Z,33.97
2018-03-22T19:23:37.159Z,33.03
2018-03-22T19:26:05.973Z,34.20
2018-03-22T19:28:34.020Z,33.30
2018-03-22T19:31:02.064Z,32.43
2018-03-22T19:33:30.112Z,35.87
2018-03-22T19:35:58.210Z,36.73
2018-03-22T19:38:26.297Z,35.70
2018-03-22T19:40:54.332Z,37.87
2018-03-22T19:43:22.376Z,39.97
2018-03-22T19:45:50.427Z,38.83
2018-03-22T19:48:19.241Z,39.77
2018-03-22T19:50:47.271Z,38.37
2018-03-22T19:53:15.320Z,37.70
2018-03-22T19:55:43.347Z,42.23
2018-03-22T19:58:11.395Z,40.47
2018-03-22T20:00:39.451Z,38.80
2018-03-22T20:03:08.256Z,38.33
2018-03-22T20:05:37.134Z,39.07
2018-03-22T20:08:05.117Z,39.07
2018-03-22T20:10:33.165Z,42.63
2018-03-22T20:13:01.204Z,43.17
2018-03-22T20:15:30.143Z,42.97
2018-03-22T20:17:58.168Z,40.70
2018-03-22T20:20:26.204Z,40.93
2018-03-22T20:22:54.280Z,42.97
2018-03-22T20:25:22.317Z,43.97
2018-03-22T20:27:50.416Z,42.93
2018-03-22T20:30:18.459Z,46.17
2018-03-22T20:32:46.558Z,46.83
2018-03-22T20:35:14.567Z,50.63
2018-03-22T20:37:42.608Z,46.53
2018-03-22T20:40:10.680Z,52.90
2018-03-22T20:42:38.717Z,44.10
2018-03-22T20:45:06.839Z,43.00
2018-03-22T20:47:34.887Z,44.00
2018-03-22T20:50:02.939Z,50.17
2018-03-22T20:52:30.979Z,46.27
2018-03-22T20:54:59.796Z,43.47
2018-03-22T20:57:27.832Z,43.17
2018-03-22T20:59:55.884Z,57.20
2018-03-22T21:02:23.931Z,95.90
2018-03-22T21:04:52.736Z,51.23
2018-03-22T21:07:21.553Z,52.70
2018-03-22T21:09:49.588Z,68.80
2018-03-22T21:12:17.644Z,46.30
2018-03-22T21:14:45.727Z,48.60
2018-03-22T21:17:13.755Z,82.80
2018-03-22T21:19:41.807Z,54.37
2018-03-22T21:22:09.864Z,55.67
2018-03-22T21:24:37.924Z,44.53
2018-03-22T21:27:06.745Z,47.97
2018-03-22T21:29:34.780Z,47.90
2018-03-22T21:32:02.872Z,48.17
2018-03-22T21:34:30.996Z,56.27
2018-03-22T21:36:59.036Z,53.13
2018-03-22T21:39:27.167Z,50.87
2018-03-22T21:42:06.868Z,45.47
2018-03-22T21:44:34.903Z,46.10
2018-03-22T21:47:20.939Z,46.53
2018-03-22T21:49:48.967Z,44.73
2018-03-22T21:52:34.966Z,45.00
2018-03-22T21:55:03.008Z,48.77
2018-03-22T21:57:31.080Z,46.13
2018-03-22T21:59:59.127Z,49.50
2018-03-22T22:02:27.164Z,50.03
2018-03-22T22:04:55.243Z,45.40
2018-03-22T22:07:23.267Z,51.10
2018-03-22T22:09:51.323Z,49.83
2018-03-22T22:12:19.357Z,50.27
2018-03-22T22:14:48.152Z,52.30
2018-03-22T22:17:16.971Z,48.83
2018-03-22T22:19:45.770Z,55.63
2018-03-22T22:22:14.593Z,52.87
2018-03-22T22:24:42.635Z,58.10
2018-03-22T22:27:10.677Z,55.57
2018-03-22T22:29:38.716Z,54.20
2018-03-22T22:32:07.516Z,54.57
2018-03-22T22:34:36.331Z,57.80
2018-03-22T22:37:05.168Z,59.83
2018-03-22T22:39:33.203Z,57.03
2018-03-22T22:42:02.059Z,55.30
2018-03-22T22:44:30.103Z,53.63
2018-03-22T22:46:58.909Z,57.47
2018-03-22T22:49:27.723Z,60.50
2018-03-22T22:51:55.764Z,55.93
2018-03-22T22:54:23.905Z,52.73
2018-03-22T22:56:51.963Z,61.83
2018-03-22T22:59:20.854Z,57.77
2018-03-22T23:01:48.869Z,54.83
2018-03-22T23:04:16.919Z,60.77
2018-03-22T23:06:45.752Z,58.83
2018-03-22T23:09:13.812Z,60.10
2018-03-22T23:11:42.615Z,82.57
2018-03-22T23:14:11.427Z,75.33
2018-03-22T23:16:40.236Z,58.23
2018-03-22T23:19:08.296Z,66.33
2018-03-22T23:21:36.336Z,60.43
2018-03-22T23:24:04.368Z,65.13
2018-03-22T23:26:33.183Z,57.03
2018-03-22T23:29:02.001Z,59.30
2018-03-22T23:31:30.033Z,57.13
2018-03-22T23:33:58.085Z,61.97
2018-03-22T23:36:26.125Z,64.83
2018-03-22T23:38:54.932Z,59.03
2018-03-22T23:41:23.762Z,56.90
2018-03-22T23:43:51.791Z,56.73
2018-03-22T23:46:19.833Z,62.97
2018-03-22T23:48:47.888Z,61.53
2018-03-22T23:51:16.731Z,57.70
2018-03-22T23:53:45.511Z,57.43
2018-03-22T23:56:13.603Z,67.50
2018-03-22T23:58:41.645Z,58.57
